createdAt,value
2018-04-22T00:01:47.188Z,95114.63
2018-04-22T00:04:50.454Z,95115.91
2018-04-22T00:07:53.683Z,95105.43
2018-04-22T00:11:05.864Z,95112.84
2018-04-22T00:14:09.999Z,95110.30
2018-04-22T00:17:14.039Z,95109.22
2018-04-22T00:20:17.306Z,95109.64
2018-04-22T00:23:21.344Z,95104.52
2018-04-22T00:26:24.647Z,95101.88
2018-04-22T00:29:28.015Z,95104.23
2018-04-22T00:32:32.044Z,95105.35
2018-04-22T00:35:35.662Z,95101.41
2018-04-22T00:38:38.949Z,95102.13
2018-04-22T00:41:42.199Z,95093.52
2018-04-22T00:44:45.467Z,95096.22
2018-04-22T00:47:48.737Z,95091.38
2018-04-22T00:50:52.002Z,95092.64
2018-04-22T00:54:13.270Z,95086.24
2018-04-22T00:57:16.553Z,95092.97
2018-04-22T01:00:19.814Z,95090.36
2018-04-22T01:03:23.615Z,95094.48
2018-04-22T01:06:26.874Z,95090.94
2018-04-22T01:09:30.180Z,95088.89
2018-04-22T01:12:33.438Z,95086.04
2018-04-22T01:15:37.457Z,95074.54
2018-04-22T01:18:41.486Z,95077.04
2018-04-22T01:21:44.759Z,95076.94
2018-04-22T01:24:48.023Z,95074.11
2018-04-22T01:27:51.483Z,95076.66
2018-04-22T01:30:54.759Z,95074.54
2018-04-22T01:33:58.798Z,95079.39
2018-04-22T01:37:02.810Z,95076.66
2018-04-22T01:40:06.844Z,95077.87
2018-04-22T01:43:10.115Z,95079.53
2018-04-22T01:46:14.140Z,95077.08
2018-04-22T01:49:18.197Z,95075.41
2018-04-22T01:52:21.449Z,95074.87
2018-04-22T01:55:25.483Z,95072.52
2018-04-22T01:58:28.780Z,95066.91
2018-04-22T02:01:32.055Z,95070.78
2018-04-22T02:04:36.079Z,95068.23
2018-04-22T02:07:40.121Z,95062.39
2018-04-22T02:10:43.407Z,95058.98
2018-04-22T02:13:46.667Z,95065.09
2018-04-22T02:16:50.688Z,95063.20
2018-04-22T02:19:54.714Z,95062.31
2018-04-22T02:22:58.862Z,95067.30
2018-04-22T02:26:02.131Z,95059.41
2018-04-22T02:29:06.170Z,95061.22
2018-04-22T02:32:09.460Z,95056.50
2018-04-22T02:35:13.595Z,95054.53
2018-04-22T02:38:16.877Z,95049.31
2018-04-22T02:41:20.132Z,95048.11
2018-04-22T02:44:23.410Z,95043.84
2018-04-22T02:47:26.760Z,95042.90
2018-04-22T02:50:30.026Z,95038.59
2018-04-22T02:53:33.643Z,95035.12
2018-04-22T02:56:37.674Z,95037.08
2018-04-22T02:59:40.938Z,95038.72
2018-04-22T03:02:44.195Z,95039.05
2018-04-22T03:05:47.473Z,95037.88
2018-04-22T03:08:50.743Z,95031.70
2018-04-22T03:11:56.512Z,95034.67
2018-04-22T03:15:00.557Z,95033.23
2018-04-22T03:18:03.848Z,95030.52
2018-04-22T03:21:07.121Z,95027.93
2018-04-22T03:24:11.160Z,95030.45
2018-04-22T03:27:14.427Z,95027.20
2018-04-22T03:30:18.811Z,95025.71
2018-04-22T03:33:22.074Z,95030.87
2018-04-22T03:36:25.338Z,95031.03
2018-04-22T03:39:29.420Z,95031.91
2018-04-22T03:42:32.746Z,95032.36
2018-04-22T03:45:35.978Z,95031.61
2018-04-22T03:48:39.271Z,95028.75
2018-04-22T03:51:43.322Z,95029.11
2018-04-22T03:54:46.599Z,95026.86
2018-04-22T03:57:49.863Z,95026.10
2018-04-22T04:00:53.897Z,95026.91
2018-04-22T04:03:57.952Z,95029.23
2018-04-22T04:07:01.241Z,95027.29
2018-04-22T04:10:04.526Z,95021.95
2018-04-22T04:13:07.847Z,95030.01
2018-04-22T04:16:11.152Z,95024.81
2018-04-22T04:19:32.403Z,95026.38
2018-04-22T04:22:47.266Z,95028.46
2018-04-22T04:29:45.611Z,95027.59
2018-04-22T04:32:48.897Z,95026.66
2018-04-22T04:35:52.949Z,95022.59
2018-04-22T04:38:56.234Z,95029.02
2018-04-22T04:41:59.500Z,95031.34
2018-04-22T04:45:03.550Z,95028.75
2018-04-22T04:48:06.885Z,95033.94
2018-04-22T04:51:10.166Z,95032.39
2018-04-22T04:54:13.461Z,95042.16
2018-04-22T04:57:16.824Z,95041.30
2018-04-22T05:00:20.370Z,95041.34
2018-04-22T05:03:23.644Z,95041.75
2018-04-22T05:06:26.948Z,95043.92
2018-04-22T05:09:30.267Z,95037.50
2018-04-22T05:12:33.557Z,95041.77
2018-04-22T05:15:36.858Z,95040.92
2018-04-22T05:18:40.169Z,95048.70
2018-04-22T05:21:43.447Z,95038.33
2018-04-22T05:24:46.738Z,95046.77
2018-04-22T05:27:50.757Z,95054.27
2018-04-22T05:30:54.852Z,95051.81
2018-04-22T05:33:58.882Z,95054.41
2018-04-22T05:37:02.163Z,95055.31
2018-04-22T05:40:06.194Z,95053.31
2018-04-22T05:43:09.495Z,95057.61
2018-04-22T05:46:12.749Z,95051.19
2018-04-22T05:49:16.094Z,95059.80
2018-04-22T05:52:19.382Z,95054.30
2018-04-22T05:55:22.680Z,95051.56
2018-04-22T05:58:26.005Z,95058.84
2018-04-22T06:01:29.256Z,95052.86
2018-04-22T06:04:33.293Z,95051.58
2018-04-22T06:07:36.608Z,95046.95
2018-04-22T06:10:39.893Z,95056.93
2018-04-22T06:13:43.421Z,95049.65
2018-04-22T06:16:46.699Z,95043.05
2018-04-22T06:19:50.064Z,95043.77
2018-04-22T06:22:55.513Z,95047.95
2018-04-22T06:25:58.792Z,95049.22
2018-04-22T06:29:02.054Z,95048.88
2018-04-22T06:32:05.331Z,95043.38
2018-04-22T06:35:08.628Z,95049.64
2018-04-22T06:38:11.917Z,95044.55
2018-04-22T06:41:16.024Z,95045.19
2018-04-22T06:44:20.063Z,95042.69
2018-04-22T06:47:23.376Z,95040.34
2018-04-22T06:50:26.641Z,95041.67
2018-04-22T06:53:31.574Z,95040.70
2018-04-22T06:56:34.972Z,95043.64
2018-04-22T06:59:38.995Z,95038.20
2018-04-22T07:02:43.031Z,95043.59
2018-04-22T07:05:46.329Z,95044.03
2018-04-22T07:08:49.769Z,95040.50
2018-04-22T07:11:53.031Z,95047.34
2018-04-22T07:14:56.398Z,95047.18
2018-04-22T07:18:00.745Z,95055.16
2018-04-22T07:21:04.023Z,95046.47
2018-04-22T07:24:08.090Z,95044.05
2018-04-22T07:27:11.706Z,95045.06
2018-04-22T07:30:15.774Z,95044.66
2018-04-22T07:33:19.067Z,95050.97
2018-04-22T07:36:23.166Z,95047.19
2018-04-22T07:39:27.191Z,95050.35
2018-04-22T07:42:31.285Z,95049.19
2018-04-22T07:45:34.479Z,95050.88
2018-04-22T07:48:37.774Z,95055.72
2018-04-22T07:51:41.037Z,95050.86
2018-04-22T07:54:44.301Z,95044.35
2018-04-22T07:57:48.356Z,95050.16
2018-04-22T08:00:51.658Z,95050.82
2018-04-22T08:03:54.919Z,95055.83
2018-04-22T08:06:58.189Z,95053.80
2018-04-22T08:10:01.454Z,95061.13
2018-04-22T08:13:04.719Z,95052.05
2018-04-22T08:16:07.987Z,95052.03
2018-04-22T08:19:11.290Z,95048.20
2018-04-22T08:22:15.310Z,95050.06
2018-04-22T08:25:19.336Z,95043.82
2018-04-22T08:28:22.618Z,95046.02
2018-04-22T08:31:26.681Z,95046.89
2018-04-22T08:34:29.960Z,95037.63
2018-04-22T08:37:33.278Z,95039.52
2018-04-22T08:40:36.567Z,95041.28
2018-04-22T08:43:39.837Z,95031.58
2018-04-22T08:46:43.863Z,95039.80
2018-04-22T08:49:47.135Z,95036.60
2018-04-22T08:52:50.400Z,95037.81
2018-04-22T08:55:53.686Z,95033.20
2018-04-22T08:58:56.935Z,95031.48
2018-04-22T09:02:01.002Z,95035.11
2018-04-22T09:05:04.250Z,95034.03
2018-04-22T09:08:08.271Z,95030.13
2018-04-22T09:11:11.715Z,95030.89
2018-04-22T09:14:15.023Z,95024.52
2018-04-22T09:17:18.273Z,95025.59
2018-04-22T09:20:21.568Z,95026.90
2018-04-22T09:23:24.922Z,95028.48
2018-04-22T09:26:28.186Z,95023.83
2018-04-22T09:29:31.510Z,95014.52
2018-04-22T09:32:34.763Z,95015.98
2018-04-22T09:35:38.025Z,95012.88
2018-04-22T09:38:42.067Z,95008.59
2018-04-22T09:41:46.093Z,95008.44
2018-04-22T09:44:49.353Z,95009.30
2018-04-22T09:47:52.625Z,95006.45
2018-04-22T09:50:55.885Z,94999.86
2018-04-22T09:53:59.150Z,95002.41
2018-04-22T09:57:03.192Z,94999.50
2018-04-22T10:00:06.467Z,95001.88
2018-04-22T10:03:09.755Z,94995.13
2018-04-22T10:06:13.175Z,94986.92
2018-04-22T10:09:17.207Z,94986.73
2018-04-22T10:12:20.489Z,94994.62
2018-04-22T10:15:23.779Z,94982.86
2018-04-22T10:18:27.076Z,94982.72
2018-04-22T10:21:30.334Z,94978.67
2018-04-22T10:24:33.660Z,94976.10
2018-04-22T10:27:37.080Z,94976.69
2018-04-22T10:30:41.235Z,94972.58
2018-04-22T10:33:44.495Z,94975.40
2018-04-22T10:36:47.770Z,94962.87
2018-04-22T10:39:51.757Z,94965.72
2018-04-22T10:42:55.171Z,94965.20
2018-04-22T10:45:58.468Z,94964.56
2018-04-22T10:49:02.518Z,94965.14
2018-04-22T10:52:05.785Z,94955.94
2018-04-22T10:55:09.201Z,94953.45
2018-04-22T10:58:12.404Z,94959.20
2018-04-22T11:01:15.694Z,94950.54
2018-04-22T11:04:18.991Z,94949.85
2018-04-22T11:07:22.249Z,94941.38
2018-04-22T11:10:26.218Z,94945.81
2018-04-22T11:13:29.483Z,94944.41
2018-04-22T11:16:32.734Z,94935.73
2018-04-22T11:19:36.772Z,94934.86
2018-04-22T11:22:40.083Z,94935.56
2018-04-22T11:25:43.378Z,94935.42
2018-04-22T11:28:46.645Z,94930.23
2018-04-22T11:31:50.662Z,94937.18
2018-04-22T11:34:54.747Z,94937.02
2018-04-22T11:37:58.096Z,94935.20
2018-04-22T11:41:01.391Z,94936.36
2018-04-22T11:44:04.702Z,94940.58
2018-04-22T11:47:08.680Z,94936.67
2018-04-22T11:50:12.763Z,94928.00
2018-04-22T11:53:16.094Z,94934.69
2018-04-22T11:56:20.116Z,94932.33
2018-04-22T11:59:24.201Z,94929.22
2018-04-22T12:02:27.512Z,94927.57
2018-04-22T12:05:30.803Z,94921.45
2018-04-22T12:08:34.096Z,94919.11
2018-04-22T12:11:37.610Z,94911.33
2018-04-22T12:14:41.707Z,94911.70
2018-04-22T12:17:44.952Z,94903.17
2018-04-22T12:20:49.008Z,94903.80
2018-04-22T12:23:52.270Z,94905.48
2018-04-22T12:26:55.545Z,94906.23
2018-04-22T12:29:58.887Z,94900.94
2018-04-22T12:33:02.207Z,94895.83
2018-04-22T12:36:05.477Z,94888.70
2018-04-22T12:39:08.771Z,94897.48
2018-04-22T12:42:12.053Z,94895.22
2018-04-22T12:45:15.370Z,94894.41
2018-04-22T12:48:18.839Z,94895.44
2018-04-22T12:51:22.885Z,94892.34
2018-04-22T12:54:26.169Z,94888.83
2018-04-22T12:57:29.468Z,94888.95
2018-04-22T13:00:32.823Z,94886.67
2018-04-22T13:03:36.080Z,94882.34
2018-04-22T13:06:39.376Z,94886.13
2018-04-22T13:09:42.657Z,94881.61
2018-04-22T13:12:45.959Z,94884.72
2018-04-22T13:15:49.235Z,94875.05
2018-04-22T13:18:53.308Z,94870.52
2018-04-22T13:21:56.571Z,94871.43
2018-04-22T13:24:59.868Z,94866.55
2018-04-22T13:28:03.131Z,94864.87
2018-04-22T13:31:06.401Z,94864.22
2018-04-22T13:34:10.786Z,94857.20
2018-04-22T13:37:16.440Z,94857.42
2018-04-22T13:40:20.145Z,94853.98
2018-04-22T13:43:23.867Z,94845.66
2018-04-22T13:46:28.119Z,94847.63
2018-04-22T13:49:31.948Z,94852.11
2018-04-22T13:52:35.777Z,94839.75
2018-04-22T13:55:39.199Z,94840.34
2018-04-22T13:58:43.525Z,94837.47
2018-04-22T14:01:47.764Z,94831.59
2018-04-22T14:04:51.078Z,94826.64
2018-04-22T14:07:54.853Z,94830.36
2018-04-22T14:10:58.327Z,94823.33
2018-04-22T14:14:03.113Z,94821.78
2018-04-22T14:17:07.383Z,94819.36
2018-04-22T14:20:10.659Z,94817.47
2018-04-22T14:23:14.199Z,94815.84
2018-04-22T14:26:17.610Z,94809.98
2018-04-22T14:29:20.944Z,94807.84
2018-04-22T14:36:01.153Z,94800.20
2018-04-22T14:39:04.439Z,94805.61
2018-04-22T14:42:07.738Z,94792.06
2018-04-22T14:45:28.865Z,94794.61
2018-04-22T14:48:33.154Z,94790.41
2018-04-22T14:51:36.690Z,94786.79
2018-04-22T14:54:40.030Z,94788.88
2018-04-22T14:57:44.084Z,94786.19
2018-04-22T15:00:47.345Z,94783.13
2018-04-22T15:03:51.528Z,94782.27
2018-04-22T15:06:54.847Z,94772.61
2018-04-22T15:09:58.124Z,94770.96
2018-04-22T15:13:01.481Z,94768.27
2018-04-22T15:16:05.605Z,94771.68
2018-04-22T15:19:09.698Z,94765.88
2018-04-22T15:22:12.991Z,94763.49
2018-04-22T15:25:16.416Z,94767.67
2018-04-22T15:28:20.667Z,94764.20
2018-04-22T15:31:24.319Z,94762.10
2018-04-22T15:35:00.208Z,94761.98
2018-04-22T15:38:25.283Z,94755.46
2018-04-22T15:41:30.148Z,94756.27
2018-04-22T15:44:33.451Z,94751.04
2018-04-22T15:47:36.731Z,94748.87
2018-04-22T15:50:40.066Z,94754.07
2018-04-22T15:53:43.354Z,94750.61
2018-04-22T15:56:46.698Z,94751.86
2018-04-22T15:59:50.752Z,94744.41
2018-04-22T16:02:55.487Z,94741.62
2018-04-22T16:05:58.779Z,94744.70
2018-04-22T16:09:02.059Z,94741.27
2018-04-22T16:12:05.442Z,94740.17
2018-04-22T16:15:09.495Z,94740.34
2018-04-22T16:18:12.819Z,94740.95
2018-04-22T16:21:16.098Z,94740.19
2018-04-22T16:24:19.392Z,94742.92
2018-04-22T16:27:22.871Z,94740.91
2018-04-22T16:30:36.978Z,94737.14
2018-04-22T16:33:41.277Z,94735.91
2018-04-22T16:36:45.437Z,94741.39
2018-04-22T16:39:50.061Z,94739.68
2018-04-22T16:42:55.415Z,94738.91
2018-04-22T16:46:02.286Z,94736.61
2018-04-22T16:49:05.658Z,94736.61
2018-04-22T16:52:09.006Z,94733.13
2018-04-22T16:55:12.379Z,94728.41
2018-04-22T16:58:15.666Z,94727.11
2018-04-22T17:01:19.030Z,94730.86
2018-04-22T17:04:23.080Z,94727.62
2018-04-22T17:07:26.396Z,94736.55
2018-04-22T17:14:03.650Z,94736.95
2018-04-22T17:17:06.975Z,94740.42
2018-04-22T17:20:10.278Z,94742.39
2018-04-22T17:23:13.562Z,94753.19
2018-04-22T17:26:17.651Z,94750.50
2018-04-22T17:29:24.898Z,94755.34
2018-04-22T17:32:28.277Z,94761.75
2018-04-22T17:35:32.398Z,94757.66
2018-04-22T17:38:36.442Z,94760.24
2018-04-22T17:41:39.724Z,94760.96
2018-04-22T17:44:42.996Z,94767.17
2018-04-22T17:47:46.317Z,94773.73
2018-04-22T17:50:49.621Z,94771.30
2018-04-22T17:53:52.896Z,94775.95
2018-04-22T17:56:56.922Z,94774.39
2018-04-22T18:00:00.950Z,94781.17
2018-04-22T18:03:04.348Z,94782.27
2018-04-22T18:06:08.405Z,94789.66
2018-04-22T18:09:11.698Z,94796.48
2018-04-22T18:12:15.129Z,94793.55
2018-04-22T18:15:18.470Z,94794.87
2018-04-22T18:18:21.804Z,94804.64
2018-04-22T18:21:25.409Z,94805.09
2018-04-22T18:24:28.909Z,94804.99
2018-04-22T18:27:33.210Z,94809.16
2018-04-22T18:30:37.386Z,94806.16
2018-04-22T18:33:40.686Z,94812.02
2018-04-22T18:36:44.076Z,94812.30
2018-04-22T18:39:47.542Z,94819.00
2018-04-22T18:42:50.874Z,94821.53
2018-04-22T18:45:54.596Z,94821.39
2018-04-22T18:48:59.019Z,94826.34
2018-04-22T18:52:02.342Z,94834.66
2018-04-22T18:55:05.699Z,94833.70
2018-04-22T18:58:09.009Z,94838.37
2018-04-22T19:01:12.368Z,94837.44
2018-04-22T19:04:16.425Z,94833.63
2018-04-22T19:07:19.698Z,94835.03
2018-04-22T19:10:23.763Z,94839.88
2018-04-22T19:13:28.402Z,94840.27
2018-04-22T19:16:31.693Z,94848.03
2018-04-22T19:19:34.954Z,94850.15
2018-04-22T19:22:38.264Z,94855.15
2018-04-22T19:25:41.557Z,94851.89
2018-04-22T19:28:44.853Z,94859.19
2018-04-22T19:31:48.466Z,94858.23
2018-04-22T19:34:53.282Z,94860.94
2018-04-22T19:37:59.259Z,94858.81
2018-04-22T19:41:02.572Z,94864.59
2018-04-22T19:44:07.451Z,94861.31
2018-04-22T19:47:11.129Z,94863.05
2018-04-22T19:50:14.505Z,94865.34
2018-04-22T19:53:18.543Z,94864.75
2018-04-22T19:56:21.798Z,94866.42
2018-04-22T19:59:25.080Z,94867.40
2018-04-22T20:02:28.327Z,94866.95
2018-04-22T20:05:31.611Z,94870.48
2018-04-22T20:08:35.731Z,94866.06
2018-04-22T20:11:39.751Z,94868.69
2018-04-22T20:14:43.044Z,94869.27
2018-04-22T20:17:46.361Z,94874.23
2018-04-22T20:20:49.642Z,94870.74
2018-04-22T20:23:52.924Z,94875.27
2018-04-22T20:26:56.949Z,94875.27
2018-04-22T20:30:01.007Z,94870.52
2018-04-22T20:33:05.090Z,94869.41
2018-04-22T20:36:08.377Z,94881.25
2018-04-22T20:39:12.410Z,94883.83
2018-04-22T20:42:15.675Z,94887.91
2018-04-22T20:45:19.711Z,94883.56
2018-04-22T20:48:23.027Z,94881.91
2018-04-22T20:51:26.296Z,94885.53
2018-04-22T20:54:30.322Z,94880.58
2018-04-22T20:57:34.385Z,94885.33
2018-04-22T21:00:37.875Z,94880.58
2018-04-22T21:03:41.170Z,94874.59
2018-04-22T21:06:44.431Z,94875.10
2018-04-22T21:09:48.502Z,94882.36
2018-04-22T21:12:51.755Z,94880.61
2018-04-22T21:15:55.043Z,94876.83
2018-04-22T21:18:59.122Z,94877.08
2018-04-22T21:22:02.391Z,94881.09
2018-04-22T21:25:05.683Z,94880.74
2018-04-22T21:28:08.967Z,94879.52
2018-04-22T21:31:12.265Z,94874.81
2018-04-22T21:34:15.543Z,94868.06
2018-04-22T21:37:19.584Z,94878.67
2018-04-22T21:40:22.849Z,94881.56
2018-04-22T21:43:26.883Z,94888.48
2018-04-22T21:46:30.186Z,94887.80
2018-04-22T21:49:33.490Z,94893.28
2018-04-22T21:52:36.769Z,94889.69
2018-04-22T21:55:40.796Z,94886.45
2018-04-22T21:58:44.083Z,94889.26
2018-04-22T22:01:48.098Z,94892.06
2018-04-22T22:04:52.134Z,94892.97
2018-04-22T22:07:55.521Z,94888.16
2018-04-22T22:10:59.583Z,94885.66
2018-04-22T22:14:02.941Z,94889.44
2018-04-22T22:17:06.429Z,94900.03
2018-04-22T22:20:10.508Z,94899.48
2018-04-22T22:23:13.788Z,94894.87
2018-04-22T22:26:17.064Z,94904.10
2018-04-22T22:29:20.338Z,94901.60
2018-04-22T22:32:24.381Z,94904.66
2018-04-22T22:35:27.732Z,94903.06
2018-04-22T22:38:31.024Z,94902.65
2018-04-22T22:41:34.421Z,94901.13
2018-04-22T22:44:37.811Z,94902.16
2018-04-22T22:47:41.070Z,94903.08
2018-04-22T22:50:44.352Z,94902.25
2018-04-22T22:53:48.495Z,94906.41
2018-04-22T22:56:51.779Z,94898.56
2018-04-22T22:59:55.039Z,94902.94
2018-04-22T23:02:58.315Z,94905.55
2018-04-22T23:06:02.345Z,94910.25
2018-04-22T23:09:06.533Z,94913.69
2018-04-22T23:12:09.804Z,94914.04
2018-04-22T23:15:13.105Z,94910.70
2018-04-22T23:18:16.399Z,94914.97
2018-04-22T23:21:19.718Z,94914.87
2018-04-22T23:24:22.979Z,94919.48
2018-04-22T23:27:27.007Z,94917.37
2018-04-22T23:30:30.311Z,94916.20
2018-04-22T23:33:33.809Z,94923.63
2018-04-22T23:36:37.092Z,94919.41
2018-04-22T23:39:41.123Z,94917.44
2018-04-22T23:42:44.684Z,94920.34
2018-04-22T23:45:47.983Z,94908.38
2018-04-22T23:48:51.297Z,94913.02
2018-04-22T23:51:55.346Z,94909.59
2018-04-22T23:54:58.622Z,94912.30
2018-04-22T23:58:01.899Z,94916.36
